createdAt,value
2018-07-02T00:01:03.351Z,23.63
2018-07-02T00:03:06.075Z,21.73
2018-07-02T00:05:10.229Z,21.33
2018-07-02T00:07:13.323Z,20.00
2018-07-02T00:09:16.438Z,17.60
2018-07-02T00:11:19.310Z,18.90
2018-07-02T00:13:22.178Z,16.23
2018-07-02T00:15:25.081Z,18.10
2018-07-02T00:17:28.163Z,16.93
2018-07-02T00:19:31.041Z,18.93
2018-07-02T00:21:34.358Z,17.30
2018-07-02T00:23:37.311Z,17.23
2018-07-02T00:25:40.312Z,17.10
2018-07-02T00:27:43.029Z,17.80
2018-07-02T00:29:47.499Z,16.37
2018-07-02T00:31:51.098Z,14.33
2018-07-02T00:33:54.173Z,15.37
2018-07-02T00:35:57.366Z,12.40
2018-07-02T00:38:00.380Z,14.33
2018-07-02T00:40:02.989Z,14.00
2018-07-02T00:42:06.259Z,12.53
2018-07-02T00:44:08.795Z,12.73
2018-07-02T00:46:11.610Z,12.33
2018-07-02T00:48:14.179Z,11.27
2018-07-02T00:50:16.784Z,12.60
2018-07-02T00:52:19.441Z,11.00
2018-07-02T00:54:22.792Z,12.23
2018-07-02T00:56:26.075Z,10.33
2018-07-02T00:58:29.029Z,11.00
2018-07-02T01:00:32.001Z,10.27
2018-07-02T01:02:35.014Z,9.70
2018-07-02T01:04:37.997Z,9.30
2018-07-02T01:06:41.398Z,10.20
2018-07-02T01:08:44.284Z,8.90
2018-07-02T01:10:47.401Z,9.77
2018-07-02T01:12:50.298Z,9.30
2018-07-02T01:14:53.582Z,8.23
2018-07-02T01:16:56.721Z,9.03
2018-07-02T01:18:59.896Z,10.93
2018-07-02T01:21:02.918Z,9.03
2018-07-02T01:23:05.978Z,8.43
2018-07-02T01:25:08.974Z,8.37
2018-07-02T01:27:13.295Z,8.73
2018-07-02T01:29:16.586Z,9.47
2018-07-02T01:31:19.717Z,8.10
2018-07-02T01:33:22.460Z,9.23
2018-07-02T01:35:25.615Z,9.30
2018-07-02T01:37:28.523Z,8.20
2018-07-02T01:39:31.709Z,8.60
2018-07-02T01:41:35.189Z,9.10
2018-07-02T01:43:38.414Z,8.90
2018-07-02T01:45:41.353Z,8.63
2018-07-02T01:47:44.285Z,8.33
2018-07-02T01:49:48.488Z,7.77
2018-07-02T01:51:51.706Z,8.60
2018-07-02T01:53:54.753Z,8.80
2018-07-02T01:55:57.917Z,9.17
2018-07-02T01:58:02.725Z,7.83
2018-07-02T02:00:06.634Z,8.90
2018-07-02T02:02:09.613Z,9.07
2018-07-02T02:04:12.302Z,8.00
2018-07-02T02:06:15.287Z,9.20
2018-07-02T02:08:18.478Z,8.63
2018-07-02T02:10:21.467Z,8.90
2018-07-02T02:12:24.756Z,7.50
2018-07-02T02:14:29.585Z,7.97
2018-07-02T02:16:34.723Z,7.93
2018-07-02T02:18:38.229Z,7.50
2018-07-02T02:20:41.301Z,7.83
2018-07-02T02:22:44.518Z,7.70
2018-07-02T02:24:47.877Z,7.87
2018-07-02T02:26:51.472Z,7.87
2018-07-02T02:28:54.771Z,7.13
2018-07-02T02:30:57.656Z,8.00
2018-07-02T02:33:01.159Z,7.83
2018-07-02T02:35:04.220Z,7.47
2018-07-02T02:37:07.836Z,8.10
2018-07-02T02:39:11.635Z,7.70
2018-07-02T02:41:15.251Z,8.33
2018-07-02T02:43:18.422Z,8.07
2018-07-02T02:45:21.482Z,7.30
2018-07-02T02:47:24.579Z,7.60
2018-07-02T02:49:28.294Z,8.00
2018-07-02T02:51:31.700Z,7.50
2018-07-02T02:53:34.764Z,7.87
2018-07-02T02:55:37.845Z,8.03
2018-07-02T02:57:40.690Z,7.20
2018-07-02T02:59:44.533Z,8.00
2018-07-02T03:01:47.541Z,6.27
2018-07-02T03:03:50.890Z,7.07
2018-07-02T03:05:53.508Z,7.33
2018-07-02T03:07:56.291Z,6.33
2018-07-02T03:09:59.411Z,6.70
2018-07-02T03:12:02.488Z,6.77
2018-07-02T03:14:05.741Z,6.17
2018-07-02T03:16:09.015Z,6.27
2018-07-02T03:18:12.013Z,7.40
2018-07-02T03:20:14.847Z,7.13
2018-07-02T03:22:18.178Z,6.77
2018-07-02T03:24:22.419Z,6.23
2018-07-02T03:26:25.276Z,6.40
2018-07-02T03:28:28.342Z,6.27
2018-07-02T03:30:31.137Z,5.97
2018-07-02T03:32:34.526Z,6.73
2018-07-02T03:34:37.195Z,6.20
2018-07-02T03:36:40.495Z,6.47
2018-07-02T03:38:43.268Z,6.10
2018-07-02T03:40:46.534Z,6.57
2018-07-02T03:42:49.489Z,6.57
2018-07-02T03:44:52.329Z,5.53
2018-07-02T03:46:57.294Z,5.73
2018-07-02T03:49:00.557Z,4.93
2018-07-02T03:51:03.260Z,5.73
2018-07-02T03:53:07.138Z,6.33
2018-07-02T03:55:11.977Z,5.63
2018-07-02T03:57:15.036Z,5.50
2018-07-02T03:59:18.313Z,5.10
2018-07-02T04:01:21.137Z,5.73
2018-07-02T04:03:24.390Z,5.40
2018-07-02T04:05:27.493Z,5.85
2018-07-02T04:07:30.565Z,5.55
2018-07-02T04:09:33.749Z,5.73
2018-07-02T04:11:36.864Z,5.80
2018-07-02T04:13:39.623Z,5.90
2018-07-02T04:15:42.675Z,5.47
2018-07-02T04:17:45.891Z,5.10
2018-07-02T04:19:49.106Z,5.60
2018-07-02T04:21:52.517Z,5.37
2018-07-02T04:23:59.304Z,5.45
2018-07-02T04:26:12.068Z,5.13
2018-07-02T04:28:15.264Z,4.97
2018-07-02T04:30:18.431Z,4.90
2018-07-02T04:32:22.309Z,4.77
2018-07-02T04:34:25.426Z,6.00
2018-07-02T04:36:28.454Z,4.95
2018-07-02T04:38:31.696Z,5.35
2018-07-02T04:40:34.188Z,5.05
2018-07-02T04:42:37.493Z,5.13
2018-07-02T04:44:40.626Z,5.30
2018-07-02T04:46:43.505Z,4.20
2018-07-02T04:48:46.427Z,5.03
2018-07-02T04:50:49.620Z,4.43
2018-07-02T04:52:52.855Z,4.60
2018-07-02T04:54:55.884Z,4.00
2018-07-02T04:56:58.966Z,4.60
2018-07-02T04:59:02.083Z,4.37
2018-07-02T05:01:06.494Z,4.70
2018-07-02T05:03:09.335Z,4.90
2018-07-02T05:05:11.982Z,4.10
2018-07-02T05:07:16.100Z,3.80
2018-07-02T05:09:18.928Z,3.83
2018-07-02T05:11:21.798Z,4.33
2018-07-02T05:13:24.781Z,4.90
2018-07-02T05:15:27.756Z,4.97
2018-07-02T05:17:30.950Z,4.13
2018-07-02T05:19:34.033Z,3.63
2018-07-02T05:21:37.236Z,3.80
2018-07-02T05:23:39.954Z,4.63
2018-07-02T05:25:42.793Z,4.43
2018-07-02T05:27:45.379Z,4.63
2018-07-02T05:29:48.227Z,4.13
2018-07-02T05:31:51.327Z,4.60
2018-07-02T05:33:54.103Z,3.93
2018-07-02T05:35:57.078Z,4.50
2018-07-02T05:38:00.153Z,3.97
2018-07-02T05:40:02.985Z,3.90
2018-07-02T05:42:05.830Z,3.53
2018-07-02T05:44:09.547Z,4.10
2018-07-02T05:46:12.506Z,4.00
2018-07-02T05:48:15.489Z,4.00
2018-07-02T05:50:18.768Z,3.73
2018-07-02T05:52:21.660Z,4.70
2018-07-02T05:54:25.413Z,4.37
2018-07-02T05:56:28.347Z,3.70
2018-07-02T05:58:31.120Z,3.83
2018-07-02T06:00:34.285Z,4.80
2018-07-02T06:02:38.748Z,4.20
2018-07-02T06:04:41.610Z,3.67
2018-07-02T06:06:44.724Z,4.50
2018-07-02T06:08:47.785Z,4.17
2018-07-02T06:10:51.088Z,3.77
2018-07-02T06:12:53.964Z,3.97
2018-07-02T06:14:57.366Z,3.77
2018-07-02T06:17:00.159Z,3.50
2018-07-02T06:19:02.821Z,3.83
2018-07-02T06:21:05.578Z,3.57
2018-07-02T06:23:08.622Z,4.20
2018-07-02T06:25:11.517Z,3.77
2018-07-02T06:27:14.224Z,4.00
2018-07-02T06:29:16.893Z,4.70
2018-07-02T06:31:19.592Z,4.00
2018-07-02T06:33:22.303Z,3.83
2018-07-02T06:35:25.130Z,4.53
2018-07-02T06:37:28.527Z,3.93
2018-07-02T06:39:31.305Z,4.13
2018-07-02T06:41:34.184Z,4.20
2018-07-02T06:43:37.071Z,3.30
2018-07-02T06:45:39.851Z,3.73
2018-07-02T06:47:42.550Z,4.20
2018-07-02T06:49:45.508Z,4.10
2018-07-02T06:51:48.429Z,4.00
2018-07-02T06:53:51.171Z,3.67
2018-07-02T06:55:54.155Z,4.37
2018-07-02T06:57:57.021Z,3.93
2018-07-02T06:59:59.908Z,4.57
2018-07-02T07:02:02.660Z,3.70
2018-07-02T07:04:05.575Z,3.57
2018-07-02T07:06:08.448Z,4.47
2018-07-02T07:08:11.235Z,4.20
2018-07-02T07:10:13.813Z,3.33
2018-07-02T07:12:16.683Z,4.40
2018-07-02T07:14:19.328Z,3.90
2018-07-02T07:16:22.132Z,4.00
2018-07-02T07:18:25.651Z,4.30
2018-07-02T07:20:28.520Z,3.93
2018-07-02T07:22:31.375Z,3.70
2018-07-02T07:24:34.391Z,3.80
2018-07-02T07:26:37.216Z,4.10
2018-07-02T07:28:40.241Z,4.77
2018-07-02T07:30:43.223Z,4.00
2018-07-02T07:32:46.324Z,3.90
2018-07-02T07:34:49.296Z,3.60
2018-07-02T07:36:52.209Z,4.27
2018-07-02T07:38:54.953Z,4.77
2018-07-02T07:40:57.630Z,3.53
2018-07-02T07:43:00.519Z,3.80
2018-07-02T07:45:03.399Z,4.00
2018-07-02T07:47:06.729Z,3.77
2018-07-02T07:49:09.793Z,3.97
2018-07-02T07:51:12.469Z,4.17
2018-07-02T07:53:15.392Z,4.60
2018-07-02T07:55:18.420Z,3.70
2018-07-02T07:57:21.614Z,3.90
2018-07-02T07:59:24.708Z,3.43
2018-07-02T08:01:27.770Z,4.07
2018-07-02T08:03:30.758Z,3.67
2018-07-02T08:05:33.545Z,3.10
2018-07-02T08:07:36.325Z,3.57
2018-07-02T08:09:39.595Z,3.80
2018-07-02T08:11:42.043Z,3.30
2018-07-02T08:13:44.653Z,3.57
2018-07-02T08:15:47.581Z,4.27
2018-07-02T08:17:50.431Z,3.53
2018-07-02T08:19:53.603Z,3.60
2018-07-02T08:21:56.679Z,3.50
2018-07-02T08:23:59.682Z,3.37
2018-07-02T08:26:02.407Z,3.70
2018-07-02T08:28:05.122Z,3.60
2018-07-02T08:30:08.126Z,3.10
2018-07-02T08:32:10.794Z,3.10
2018-07-02T08:34:13.839Z,2.90
2018-07-02T08:36:16.741Z,3.80
2018-07-02T08:38:19.758Z,3.30
2018-07-02T08:40:22.571Z,3.03
2018-07-02T08:42:25.583Z,3.60
2018-07-02T08:44:29.295Z,3.77
2018-07-02T08:46:31.873Z,4.00
2018-07-02T08:48:34.860Z,3.87
2018-07-02T08:50:37.660Z,3.83
2018-07-02T08:52:40.789Z,3.30
2018-07-02T08:54:43.815Z,4.00
2018-07-02T08:56:46.686Z,3.67
2018-07-02T08:58:49.547Z,3.60
2018-07-02T09:00:52.356Z,3.40
2018-07-02T09:02:55.252Z,3.40
2018-07-02T09:04:58.326Z,3.47
2018-07-02T09:07:01.404Z,3.43
2018-07-02T09:09:04.186Z,3.80
2018-07-02T09:11:07.064Z,3.67
2018-07-02T09:13:10.253Z,3.70
2018-07-02T09:15:13.184Z,3.70
2018-07-02T09:17:16.349Z,3.40
2018-07-02T09:19:19.207Z,2.93
2018-07-02T09:21:21.622Z,3.60
2018-07-02T09:23:24.661Z,4.17
2018-07-02T09:25:27.748Z,4.10
2018-07-02T09:27:30.319Z,3.47
2018-07-02T09:29:33.213Z,3.70
2018-07-02T09:31:36.083Z,3.27
2018-07-02T09:33:38.881Z,3.67
2018-07-02T09:35:41.814Z,4.00
2018-07-02T09:37:44.635Z,3.10
2018-07-02T09:39:47.703Z,3.53
2018-07-02T09:41:51.312Z,2.30
2018-07-02T09:43:54.497Z,3.50
2018-07-02T09:45:57.902Z,2.90
2018-07-02T09:48:00.812Z,2.87
2018-07-02T09:50:03.429Z,3.40
2018-07-02T09:52:06.428Z,3.43
2018-07-02T09:54:09.034Z,3.20
2018-07-02T09:56:11.620Z,3.23
2018-07-02T09:58:14.448Z,3.77
2018-07-02T10:00:17.490Z,2.70
2018-07-02T10:02:20.215Z,3.10
2018-07-02T10:04:23.094Z,3.50
2018-07-02T10:06:25.989Z,2.83
2018-07-02T10:08:28.939Z,3.23
2018-07-02T10:10:31.700Z,3.80
2018-07-02T10:12:34.653Z,3.10
2018-07-02T10:14:37.596Z,3.30
2018-07-02T10:16:40.236Z,2.87
2018-07-02T10:18:43.048Z,2.97
2018-07-02T10:20:45.927Z,2.87
2018-07-02T10:22:49.015Z,3.20
2018-07-02T10:24:51.895Z,3.47
2018-07-02T10:26:54.880Z,2.90
2018-07-02T10:28:57.667Z,2.90
2018-07-02T10:31:00.523Z,3.03
2018-07-02T10:33:03.323Z,3.03
2018-07-02T10:35:06.475Z,2.90
2018-07-02T10:37:09.292Z,3.10
2018-07-02T10:39:12.274Z,16.60
2018-07-02T10:41:15.255Z,7.10
2018-07-02T10:43:18.141Z,6.93
2018-07-02T10:45:21.019Z,8.60
2018-07-02T10:47:24.005Z,7.27
2018-07-02T10:49:27.605Z,5.90
2018-07-02T10:51:30.124Z,5.20
2018-07-02T10:53:32.908Z,5.17
2018-07-02T10:55:35.968Z,5.40
2018-07-02T10:57:38.805Z,5.17
2018-07-02T10:59:41.840Z,5.20
2018-07-02T11:01:44.574Z,4.80
2018-07-02T11:03:47.251Z,4.50
2018-07-02T11:05:50.006Z,4.67
2018-07-02T11:07:52.555Z,4.50
2018-07-02T11:09:55.495Z,4.87
2018-07-02T11:11:58.374Z,4.60
2018-07-02T11:14:01.274Z,4.90
2018-07-02T11:16:04.245Z,4.23
2018-07-02T11:18:07.013Z,4.50
2018-07-02T11:20:09.844Z,4.03
2018-07-02T11:22:12.832Z,5.10
2018-07-02T11:24:15.430Z,4.73
2018-07-02T11:26:18.393Z,4.80
2018-07-02T11:28:21.827Z,4.60
2018-07-02T11:30:24.924Z,4.70
2018-07-02T11:32:27.748Z,4.40
2018-07-02T11:34:30.279Z,4.47
2018-07-02T11:36:33.148Z,4.40
2018-07-02T11:38:36.254Z,4.20
2018-07-02T11:40:39.444Z,3.93
2018-07-02T11:42:42.201Z,3.80
2018-07-02T11:44:44.891Z,4.90
2018-07-02T11:46:47.971Z,4.20
2018-07-02T11:48:50.416Z,4.70
2018-07-02T11:50:53.206Z,3.67
2018-07-02T11:52:56.296Z,3.60
2018-07-02T11:54:58.969Z,4.03
2018-07-02T11:57:01.718Z,3.50
2018-07-02T11:59:04.337Z,3.30
2018-07-02T12:01:07.319Z,3.17
2018-07-02T12:03:10.296Z,2.93
2018-07-02T12:05:14.394Z,3.20
2018-07-02T12:07:17.193Z,3.50
2018-07-02T12:11:36.743Z,2.77
2018-07-02T12:13:39.396Z,2.80
2018-07-02T12:15:42.122Z,2.97
2018-07-02T12:17:45.114Z,3.60
2018-07-02T12:19:48.185Z,2.83
2018-07-02T12:21:51.082Z,3.00
2018-07-02T12:23:54.150Z,2.93
2018-07-02T12:25:57.243Z,3.53
2018-07-02T12:27:59.952Z,2.80
2018-07-02T12:30:02.680Z,2.70
2018-07-02T12:32:05.991Z,5.70
2018-07-02T12:34:09.283Z,23.83
2018-07-02T12:36:12.161Z,13.63
2018-07-02T12:38:14.942Z,5.87
2018-07-02T12:40:17.843Z,5.90
2018-07-02T12:42:20.806Z,10.33
2018-07-02T12:44:23.784Z,6.53
2018-07-02T12:46:26.670Z,5.73
2018-07-02T12:48:30.426Z,5.67
2018-07-02T12:50:33.448Z,5.30
2018-07-02T12:52:36.334Z,5.77
2018-07-02T12:54:39.552Z,4.70
2018-07-02T12:56:42.987Z,5.03
2018-07-02T12:58:45.796Z,4.50
2018-07-02T13:00:48.779Z,4.73
2018-07-02T13:02:51.729Z,5.00
2018-07-02T13:04:54.200Z,5.37
2018-07-02T13:06:57.023Z,4.40
2018-07-02T13:08:59.804Z,6.83
2018-07-02T13:11:02.482Z,5.93
2018-07-02T13:13:05.285Z,6.20
2018-07-02T13:15:08.027Z,7.30
2018-07-02T13:17:11.227Z,7.50
2018-07-02T13:19:14.517Z,6.60
2018-07-02T13:21:17.487Z,6.13
2018-07-02T13:23:20.568Z,6.57
2018-07-02T13:25:23.265Z,5.90
2018-07-02T13:27:26.234Z,5.80
2018-07-02T13:29:29.024Z,5.73
2018-07-02T13:31:34.555Z,4.93
2018-07-02T13:33:38.051Z,5.03
2018-07-02T13:35:40.730Z,4.77
2018-07-02T13:37:43.979Z,4.90
2018-07-02T13:39:47.220Z,4.87
2018-07-02T13:41:50.229Z,3.23
2018-07-02T13:43:53.089Z,3.83
2018-07-02T13:45:55.958Z,3.87
2018-07-02T13:47:59.261Z,4.00
2018-07-02T13:50:02.423Z,5.83
2018-07-02T13:52:05.315Z,3.73
2018-07-02T13:54:08.215Z,6.60
2018-07-02T13:56:11.180Z,4.93
2018-07-02T13:58:14.506Z,4.10
2018-07-02T14:00:17.470Z,4.00
2018-07-02T14:02:20.629Z,4.30
2018-07-02T14:04:23.439Z,5.70
2018-07-02T14:06:26.297Z,4.30
2018-07-02T14:08:29.112Z,4.87
2018-07-02T14:10:31.854Z,5.10
2018-07-02T14:12:34.703Z,4.90
2018-07-02T14:14:38.158Z,4.37
2018-07-02T14:16:41.223Z,5.10
2018-07-02T14:18:44.305Z,4.13
2018-07-02T14:20:47.392Z,3.83
2018-07-02T14:22:50.280Z,5.33
2018-07-02T14:24:53.278Z,5.00
2018-07-02T14:26:56.237Z,4.27
2018-07-02T14:28:59.128Z,4.50
2018-07-02T14:31:01.864Z,4.50
2018-07-02T14:33:04.585Z,4.50
2018-07-02T14:35:07.659Z,4.07
2018-07-02T14:37:10.335Z,3.90
2018-07-02T14:39:13.177Z,4.73
2018-07-02T14:41:16.204Z,4.50
2018-07-02T14:43:19.075Z,3.80
2018-07-02T14:45:22.402Z,3.83
2018-07-02T14:47:25.255Z,3.83
2018-07-02T14:49:28.443Z,3.27
2018-07-02T14:51:32.078Z,4.07
2018-07-02T14:53:35.194Z,3.97
2018-07-02T14:55:38.111Z,3.20
2018-07-02T14:57:40.991Z,4.33
2018-07-02T14:59:43.829Z,4.53
2018-07-02T15:01:48.288Z,4.07
2018-07-02T15:03:51.074Z,3.37
2018-07-02T15:05:53.942Z,4.27
2018-07-02T15:07:56.831Z,3.70
2018-07-02T15:09:59.529Z,3.20
2018-07-02T15:12:02.085Z,3.63
2018-07-02T15:14:04.851Z,3.07
2018-07-02T15:16:07.511Z,3.53
2018-07-02T15:18:10.565Z,3.40
2018-07-02T15:20:14.446Z,3.50
2018-07-02T15:22:17.095Z,3.60
2018-07-02T15:24:19.665Z,3.27
2018-07-02T15:26:22.271Z,4.00
2018-07-02T15:28:25.231Z,3.90
2018-07-02T15:30:28.235Z,2.53
2018-07-02T15:32:31.326Z,3.50
2018-07-02T15:34:34.429Z,3.40
2018-07-02T15:36:37.471Z,2.93
2018-07-02T15:38:40.455Z,3.30
2018-07-02T15:40:43.446Z,3.03
2018-07-02T15:42:46.560Z,3.20
2018-07-02T15:44:50.016Z,3.57
2018-07-02T15:46:53.019Z,3.47
2018-07-02T15:48:55.987Z,3.13
2018-07-02T15:50:59.690Z,3.60
2018-07-02T15:53:02.626Z,3.60
2018-07-02T15:55:05.688Z,3.60
2018-07-02T15:57:08.540Z,2.87
2018-07-02T15:59:11.827Z,2.57
2018-07-02T16:01:15.330Z,3.63
2018-07-02T16:03:18.324Z,3.07
2018-07-02T16:05:22.411Z,4.10
2018-07-02T16:07:25.208Z,2.90
2018-07-02T16:09:29.545Z,3.90
2018-07-02T16:11:32.346Z,3.40
2018-07-02T16:13:35.506Z,3.87
2018-07-02T16:15:38.572Z,2.80
2018-07-02T16:17:41.337Z,2.83
2018-07-02T16:19:44.527Z,3.60
2018-07-02T16:21:47.302Z,2.50
2018-07-02T16:23:50.187Z,2.90
2018-07-02T16:25:53.010Z,3.30
2018-07-02T16:27:55.845Z,3.03
2018-07-02T16:29:58.797Z,3.53
2018-07-02T16:32:01.706Z,3.50
2018-07-02T16:34:04.817Z,2.83
2018-07-02T16:36:07.794Z,3.20
2018-07-02T16:38:10.980Z,2.77
2018-07-02T16:40:13.958Z,3.10
2018-07-02T16:42:16.836Z,2.73
2018-07-02T16:44:19.716Z,3.50
2018-07-02T16:46:22.691Z,2.83
2018-07-02T16:48:25.683Z,2.73
2018-07-02T16:50:28.784Z,3.47
2018-07-02T16:52:31.449Z,3.30
2018-07-02T16:54:34.422Z,3.00
2018-07-02T16:56:37.513Z,2.67
2018-07-02T16:58:40.496Z,2.97
2018-07-02T17:00:44.202Z,2.90
2018-07-02T17:02:47.396Z,3.30
2018-07-02T17:04:51.210Z,3.30
2018-07-02T17:06:54.177Z,3.10
2018-07-02T17:08:57.256Z,2.93
2018-07-02T17:10:59.948Z,3.10
2018-07-02T17:13:02.799Z,2.67
2018-07-02T17:15:05.891Z,3.13
2018-07-02T17:17:10.801Z,2.80
2018-07-02T17:19:14.021Z,2.60
2018-07-02T17:21:17.120Z,3.17
2018-07-02T17:23:19.880Z,3.83
2018-07-02T17:25:22.676Z,2.87
2018-07-02T17:27:25.748Z,3.37
2018-07-02T17:29:28.522Z,2.67
2018-07-02T17:31:31.714Z,3.30
2018-07-02T17:33:34.698Z,3.00
2018-07-02T17:35:37.581Z,3.20
2018-07-02T17:37:40.142Z,3.00
2018-07-02T17:39:43.180Z,3.23
2018-07-02T17:41:46.427Z,3.80
2018-07-02T17:43:49.073Z,2.93
2018-07-02T17:45:52.522Z,3.00
2018-07-02T17:47:55.190Z,2.70
2018-07-02T17:49:58.054Z,3.50
2018-07-02T17:52:01.056Z,3.50
2018-07-02T17:54:04.298Z,3.60
2018-07-02T17:56:07.204Z,4.67
2018-07-02T17:58:09.973Z,3.53
2018-07-02T18:00:12.560Z,4.03
2018-07-02T18:02:15.551Z,3.43
2018-07-02T18:04:18.223Z,3.43
2018-07-02T18:06:21.339Z,3.77
2018-07-02T18:08:24.393Z,3.40
2018-07-02T18:10:27.381Z,3.73
2018-07-02T18:12:30.358Z,3.73
2018-07-02T18:14:34.177Z,3.87
2018-07-02T18:16:37.047Z,4.03
2018-07-02T18:18:40.495Z,4.00
2018-07-02T18:20:43.201Z,5.03
2018-07-02T18:22:46.420Z,7.13
2018-07-02T18:24:49.371Z,7.93
2018-07-02T18:26:52.410Z,7.70
2018-07-02T18:28:55.355Z,8.00
2018-07-02T18:30:58.743Z,7.20
2018-07-02T18:33:01.839Z,7.80
2018-07-02T18:35:04.709Z,6.67
2018-07-02T18:37:08.287Z,6.60
2018-07-02T18:39:10.971Z,6.43
2018-07-02T18:41:13.562Z,5.63
2018-07-02T18:43:16.444Z,4.90
2018-07-02T18:45:19.464Z,5.70
2018-07-02T18:47:22.517Z,5.80
2018-07-02T18:49:25.600Z,5.23
2018-07-02T18:51:28.576Z,6.07
2018-07-02T18:53:31.473Z,5.10
2018-07-02T18:55:34.460Z,5.20
2018-07-02T18:57:37.328Z,4.93
2018-07-02T18:59:40.445Z,6.13
2018-07-02T19:01:43.023Z,5.03
2018-07-02T19:03:45.973Z,5.60
2018-07-02T19:05:48.978Z,5.80
2018-07-02T19:07:52.369Z,6.00
2018-07-02T19:09:55.432Z,6.67
2018-07-02T19:11:58.165Z,5.30
2018-07-02T19:14:01.016Z,5.13
2018-07-02T19:16:03.986Z,5.83
2018-07-02T19:18:06.422Z,6.03
2018-07-02T19:20:09.432Z,5.13
2018-07-02T19:22:12.214Z,5.27
2018-07-02T19:24:15.194Z,5.43
2018-07-02T19:26:17.974Z,4.63
2018-07-02T19:28:21.210Z,5.53
2018-07-02T19:30:24.244Z,6.10
2018-07-02T19:32:27.223Z,5.23
2018-07-02T19:34:30.125Z,4.90
2018-07-02T19:36:32.877Z,7.07
2018-07-02T19:38:35.875Z,5.70
2018-07-02T19:40:39.213Z,5.97
2018-07-02T19:42:41.837Z,5.40
2018-07-02T19:44:44.725Z,4.87
2018-07-02T19:46:47.777Z,5.50
2018-07-02T19:48:50.996Z,5.47
2018-07-02T19:50:54.177Z,5.10
2018-07-02T19:52:57.403Z,4.73
2018-07-02T19:55:00.066Z,5.93
2018-07-02T19:57:03.133Z,5.33
2018-07-02T19:59:06.216Z,5.50
2018-07-02T20:01:09.359Z,5.83
2018-07-02T20:03:12.395Z,6.20
2018-07-02T20:05:15.652Z,6.63
2018-07-02T20:07:18.379Z,7.00
2018-07-02T20:09:23.806Z,6.00
2018-07-02T20:11:26.472Z,5.70
2018-07-02T20:13:29.639Z,4.97
2018-07-02T20:15:32.683Z,5.37
2018-07-02T20:17:35.641Z,4.83
2018-07-02T20:19:38.617Z,5.80
2018-07-02T20:21:41.620Z,5.27
2018-07-02T20:23:44.649Z,5.10
2018-07-02T20:25:47.557Z,5.50
2018-07-02T20:27:50.305Z,4.77
2018-07-02T20:29:53.012Z,5.47
2018-07-02T20:31:56.001Z,5.00
2018-07-02T20:33:58.993Z,5.07
2018-07-02T20:36:02.475Z,5.30
2018-07-02T20:38:05.481Z,5.33
2018-07-02T20:40:08.555Z,4.43
2018-07-02T20:42:11.539Z,5.73
2018-07-02T20:44:14.730Z,5.60
2018-07-02T20:46:17.813Z,4.83
2018-07-02T20:48:20.888Z,4.97
2018-07-02T20:50:23.769Z,6.10
2018-07-02T20:52:26.857Z,5.87
2018-07-02T20:54:29.546Z,5.70
2018-07-02T20:56:32.660Z,5.23
2018-07-02T20:58:35.389Z,5.13
2018-07-02T21:00:38.487Z,5.63
2018-07-02T21:02:41.573Z,5.00
2018-07-02T21:04:44.771Z,5.13
2018-07-02T21:06:47.956Z,5.27
2018-07-02T21:08:51.046Z,4.63
2018-07-02T21:10:54.021Z,4.77
2018-07-02T21:12:57.515Z,5.30
2018-07-02T21:15:00.497Z,4.40
2018-07-02T21:17:04.205Z,5.03
2018-07-02T21:19:07.399Z,4.77
2018-07-02T21:21:10.880Z,4.60
2018-07-02T21:23:13.496Z,5.10
2018-07-02T21:25:16.498Z,4.70
2018-07-02T21:27:19.415Z,5.10
2018-07-02T21:29:22.422Z,5.47
2018-07-02T21:31:25.810Z,5.20
2018-07-02T21:33:29.133Z,5.43
2018-07-02T21:35:32.078Z,5.30
2018-07-02T21:37:35.056Z,5.63
2018-07-02T21:39:37.842Z,4.87
2018-07-02T21:41:40.692Z,5.77
2018-07-02T21:43:43.411Z,5.40
2018-07-02T21:45:46.167Z,5.00
2018-07-02T21:47:49.266Z,5.47
2018-07-02T21:49:52.836Z,4.90
2018-07-02T21:51:55.963Z,5.00
2018-07-02T21:53:58.735Z,5.10
2018-07-02T21:56:01.596Z,5.77
2018-07-02T21:58:04.182Z,5.10
2018-07-02T22:00:07.198Z,5.20
2018-07-02T22:02:09.742Z,4.87
2018-07-02T22:04:12.429Z,4.60
2018-07-02T22:06:15.281Z,5.00
2018-07-02T22:08:18.490Z,4.80
2018-07-02T22:10:22.081Z,6.07
2018-07-02T22:12:24.846Z,5.50
2018-07-02T22:14:27.828Z,5.70
2018-07-02T22:16:30.607Z,5.70
2018-07-02T22:18:33.360Z,6.13
2018-07-02T22:20:36.496Z,6.40
2018-07-02T22:22:39.323Z,6.50
2018-07-02T22:24:42.354Z,6.13
2018-07-02T22:26:45.497Z,6.50
2018-07-02T22:28:49.131Z,6.87
2018-07-02T22:30:52.133Z,6.60
2018-07-02T22:32:55.333Z,7.27
2018-07-02T22:34:58.594Z,6.50
2018-07-02T22:37:02.835Z,5.93
2018-07-02T22:39:05.812Z,7.60
2018-07-02T22:41:09.093Z,6.50
2018-07-02T22:43:12.067Z,6.47
2018-07-02T22:45:16.211Z,5.97
2018-07-02T22:47:19.771Z,6.27
2018-07-02T22:49:23.158Z,6.20
2018-07-02T22:51:26.049Z,6.10
2018-07-02T22:53:29.296Z,6.83
2018-07-02T22:55:32.016Z,6.83
2018-07-02T22:57:35.120Z,6.30
2018-07-02T22:59:38.420Z,7.50
2018-07-02T23:01:41.923Z,6.10
2018-07-02T23:03:45.532Z,6.30
2018-07-02T23:05:48.787Z,6.07
2018-07-02T23:07:52.163Z,6.10
2018-07-02T23:09:55.358Z,6.13
2018-07-02T23:11:58.746Z,6.20
2018-07-02T23:14:02.462Z,6.47
2018-07-02T23:16:05.638Z,7.30
2018-07-02T23:18:08.725Z,7.30
2018-07-02T23:20:12.120Z,7.07
2018-07-02T23:22:16.405Z,6.90
2018-07-02T23:24:19.645Z,7.53
2018-07-02T23:26:22.698Z,7.00
2018-07-02T23:28:25.720Z,7.17
2018-07-02T23:30:28.804Z,7.60
2018-07-02T23:32:31.618Z,6.10
2018-07-02T23:34:35.058Z,8.10
2018-07-02T23:36:38.256Z,6.97
2018-07-02T23:38:41.788Z,6.67
2018-07-02T23:40:45.627Z,7.33
2018-07-02T23:42:49.361Z,6.80
2018-07-02T23:44:53.537Z,7.27
2018-07-02T23:46:56.529Z,7.20
2018-07-02T23:48:59.915Z,6.55
2018-07-02T23:51:03.525Z,6.97
2018-07-02T23:53:06.535Z,7.87
2018-07-02T23:55:09.431Z,7.73
2018-07-02T23:57:12.285Z,7.60
2018-07-02T23:59:15.649Z,8.33
